createdAt,value
2023-02-13T00:01:03.234Z,44.81
2023-02-13T00:03:31.153Z,45.33
2023-02-13T00:05:59.125Z,45.33
2023-02-13T00:08:27.021Z,45.08
2023-02-13T00:10:55.344Z,45.04
2023-02-13T00:13:23.488Z,45.57
2023-02-13T00:15:59.831Z,45.60
2023-02-13T00:18:29.101Z,46.12
2023-02-13T00:20:59.157Z,45.86
2023-02-13T00:23:27.449Z,45.96
2023-02-13T00:25:55.270Z,45.98
2023-02-13T00:28:23.704Z,46.10
2023-02-13T00:30:51.774Z,46.13
2023-02-13T00:33:20.825Z,46.00
2023-02-13T00:35:48.708Z,46.08
2023-02-13T00:38:16.595Z,46.59
2023-02-13T00:40:46.426Z,46.30
2023-02-13T00:43:14.342Z,45.88
2023-02-13T00:45:43.795Z,46.40
2023-02-13T00:48:11.696Z,46.54
2023-02-13T00:50:39.642Z,46.57
2023-02-13T00:53:07.761Z,46.40
2023-02-13T00:55:36.021Z,46.39
2023-02-13T00:58:03.977Z,47.01
2023-02-13T01:00:32.343Z,47.10
2023-02-13T01:03:00.437Z,47.24
2023-02-13T01:05:28.786Z,47.41
2023-02-13T01:07:56.744Z,47.84
2023-02-13T01:10:25.438Z,48.10
2023-02-13T01:12:53.480Z,47.39
2023-02-13T01:15:21.777Z,47.39
2023-02-13T01:17:49.830Z,47.85
2023-02-13T01:20:17.891Z,48.16
2023-02-13T01:22:46.147Z,48.00
2023-02-13T01:25:14.058Z,47.76
2023-02-13T01:27:42.000Z,48.01
2023-02-13T01:30:14.077Z,48.60
2023-02-13T01:32:43.473Z,48.50
2023-02-13T01:35:14.047Z,48.65
2023-02-13T01:37:42.718Z,49.02
2023-02-13T01:40:16.045Z,48.64
2023-02-13T01:42:44.173Z,48.92
2023-02-13T01:45:26.586Z,48.42
2023-02-13T01:48:00.303Z,49.35
2023-02-13T01:50:52.669Z,49.67
2023-02-13T01:53:24.787Z,48.93
2023-02-13T01:56:00.171Z,49.17
2023-02-13T01:58:32.825Z,49.29
2023-02-13T02:01:02.590Z,49.31
2023-02-13T02:03:35.074Z,49.66
2023-02-13T02:06:11.521Z,49.22
2023-02-13T02:08:39.595Z,49.02
2023-02-13T02:11:16.670Z,49.92
2023-02-13T02:13:46.724Z,50.60
2023-02-13T02:16:15.019Z,50.25
2023-02-13T02:18:43.016Z,49.88
2023-02-13T02:21:11.023Z,50.52
2023-02-13T02:24:13.918Z,50.81
2023-02-13T02:27:10.010Z,50.70
2023-02-13T02:29:50.447Z,50.73
2023-02-13T02:32:31.988Z,51.21
2023-02-13T02:35:12.988Z,50.89
2023-02-13T02:38:13.378Z,51.36
2023-02-13T02:41:05.852Z,51.43
2023-02-13T02:43:49.191Z,51.53
2023-02-13T02:46:24.198Z,51.48
2023-02-13T02:49:34.836Z,51.92
2023-02-13T02:52:08.463Z,51.68
2023-02-13T02:55:04.083Z,51.34
2023-02-13T02:57:57.067Z,51.82
2023-02-13T03:00:45.539Z,51.69
2023-02-13T03:03:41.924Z,52.08
2023-02-13T03:06:19.082Z,52.38
2023-02-13T03:09:19.214Z,51.62
2023-02-13T03:12:10.023Z,51.89
2023-02-13T03:14:38.226Z,52.40
2023-02-13T03:17:25.177Z,52.11
2023-02-13T03:20:20.608Z,51.77
2023-02-13T03:23:09.558Z,51.72
2023-02-13T03:25:44.290Z,51.71
2023-02-13T03:28:41.793Z,51.83
2023-02-13T03:31:12.568Z,52.21
2023-02-13T03:33:46.294Z,52.47
2023-02-13T03:36:52.016Z,52.16
2023-02-13T03:39:36.940Z,52.39
2023-02-13T03:42:13.291Z,52.67
2023-02-13T03:44:46.769Z,52.14
2023-02-13T03:47:15.162Z,52.54
2023-02-13T03:50:06.726Z,52.15
2023-02-13T03:52:38.264Z,52.65
2023-02-13T03:55:37.250Z,52.85
2023-02-13T03:58:31.591Z,52.83
2023-02-13T04:01:02.761Z,52.18
2023-02-13T04:04:04.433Z,52.76
2023-02-13T04:06:50.299Z,52.60
2023-02-13T04:09:18.787Z,52.88
2023-02-13T04:11:52.321Z,53.10
2023-02-13T04:14:35.014Z,52.73
2023-02-13T04:17:12.843Z,52.68
2023-02-13T04:19:41.250Z,52.77
2023-02-13T04:22:09.070Z,53.03
2023-02-13T04:24:36.920Z,53.69
2023-02-13T04:27:04.890Z,52.39
2023-02-13T04:29:32.609Z,53.28
2023-02-13T04:32:00.319Z,53.98
2023-02-13T04:34:28.022Z,54.31
2023-02-13T04:36:55.784Z,53.91
2023-02-13T04:39:23.433Z,53.18
2023-02-13T04:41:51.205Z,53.33
2023-02-13T04:44:18.970Z,54.35
2023-02-13T04:46:46.754Z,54.35
2023-02-13T04:49:14.644Z,53.95
2023-02-13T04:51:42.525Z,54.54
2023-02-13T04:54:11.633Z,54.06
2023-02-13T04:56:39.352Z,54.37
2023-02-13T04:59:07.074Z,54.89
2023-02-13T05:01:34.860Z,54.26
2023-02-13T05:04:02.740Z,54.11
2023-02-13T05:06:30.553Z,54.47
2023-02-13T05:08:58.273Z,54.25
2023-02-13T05:11:26.003Z,54.44
2023-02-13T05:13:53.743Z,55.27
2023-02-13T05:16:21.516Z,55.22
2023-02-13T05:18:49.694Z,54.50
2023-02-13T05:21:35.963Z,55.10
2023-02-13T05:24:03.757Z,55.42
2023-02-13T05:26:31.532Z,55.45
2023-02-13T05:29:17.655Z,54.34
2023-02-13T05:31:54.571Z,54.39
2023-02-13T05:34:24.847Z,54.03
2023-02-13T05:36:52.826Z,54.31
2023-02-13T05:39:21.331Z,54.77
2023-02-13T05:41:49.766Z,55.00
2023-02-13T05:44:17.777Z,55.32
2023-02-13T05:46:45.893Z,55.06
2023-02-13T05:49:15.500Z,55.45
2023-02-13T05:51:43.477Z,56.13
2023-02-13T05:54:11.240Z,56.08
2023-02-13T05:56:38.943Z,55.51
2023-02-13T05:59:06.643Z,56.39
2023-02-13T06:01:34.732Z,56.52
2023-02-13T06:04:03.949Z,56.80
2023-02-13T06:06:31.877Z,56.81
2023-02-13T06:08:59.570Z,57.32
2023-02-13T06:11:27.453Z,57.78
2023-02-13T06:13:55.158Z,57.79
2023-02-13T06:16:23.166Z,58.13
2023-02-13T06:18:50.913Z,57.12
2023-02-13T06:21:18.713Z,57.24
2023-02-13T06:23:46.510Z,57.31
2023-02-13T06:26:14.527Z,57.96
2023-02-13T06:28:42.329Z,59.17
2023-02-13T06:31:10.469Z,58.36
2023-02-13T06:33:38.411Z,58.98
2023-02-13T06:36:06.561Z,59.83
2023-02-13T06:38:34.282Z,59.68
2023-02-13T06:41:02.685Z,59.95
2023-02-13T06:43:30.937Z,60.06
2023-02-13T06:45:59.051Z,60.07
2023-02-13T06:48:27.133Z,60.14
2023-02-13T06:50:55.300Z,59.73
2023-02-13T06:53:25.180Z,60.10
2023-02-13T06:55:54.022Z,59.65
2023-02-13T06:58:24.148Z,60.34
2023-02-13T07:00:52.986Z,59.92
2023-02-13T07:03:21.439Z,59.29
2023-02-13T07:05:52.160Z,59.43
2023-02-13T07:08:20.147Z,59.25
2023-02-13T07:10:48.123Z,59.28
2023-02-13T07:13:16.264Z,58.45
2023-02-13T07:15:44.382Z,58.19
2023-02-13T07:18:12.403Z,57.79
2023-02-13T07:20:40.447Z,58.01
2023-02-13T07:23:08.481Z,58.29
2023-02-13T07:25:36.519Z,58.65
2023-02-13T07:28:06.156Z,57.79
2023-02-13T07:30:35.235Z,57.62
2023-02-13T07:33:05.224Z,56.56
2023-02-13T07:35:33.897Z,56.28
2023-02-13T07:38:02.245Z,56.18
2023-02-13T07:40:30.334Z,55.55
2023-02-13T07:43:01.258Z,55.16
2023-02-13T07:45:29.235Z,54.99
2023-02-13T07:47:57.649Z,55.12
2023-02-13T07:50:25.752Z,54.93
2023-02-13T07:52:59.693Z,54.74
2023-02-13T07:55:28.978Z,54.39
2023-02-13T07:57:57.389Z,52.14
2023-02-13T08:00:25.454Z,47.62
2023-02-13T08:02:53.338Z,43.03
2023-02-13T08:05:21.185Z,38.23
2023-02-13T08:07:49.088Z,34.64
2023-02-13T08:10:35.350Z,32.12
2023-02-13T08:13:03.884Z,29.69
2023-02-13T08:15:31.839Z,28.27
2023-02-13T08:17:59.948Z,26.74
2023-02-13T08:20:28.048Z,26.38
2023-02-13T08:23:03.426Z,26.48
2023-02-13T08:25:31.395Z,26.91
2023-02-13T08:28:00.794Z,26.65
2023-02-13T08:30:29.321Z,28.11
2023-02-13T08:32:57.306Z,30.94
2023-02-13T08:35:27.606Z,32.01
2023-02-13T08:37:56.168Z,34.57
2023-02-13T08:40:25.451Z,36.75
2023-02-13T08:43:01.310Z,39.41
2023-02-13T08:45:30.059Z,39.83
2023-02-13T08:48:01.456Z,40.35
2023-02-13T08:50:29.544Z,41.26
2023-02-13T08:52:58.619Z,41.15
2023-02-13T08:55:28.494Z,40.26
2023-02-13T08:57:56.485Z,40.41
2023-02-13T09:00:24.511Z,40.01
2023-02-13T09:02:52.543Z,40.85
2023-02-13T09:05:20.739Z,40.49
2023-02-13T09:07:48.686Z,39.70
2023-02-13T09:10:16.590Z,39.49
2023-02-13T09:12:44.517Z,40.36
2023-02-13T09:15:12.485Z,40.07
2023-02-13T09:17:40.439Z,39.72
2023-02-13T09:20:08.941Z,40.13
2023-02-13T09:22:36.871Z,40.64
2023-02-13T09:25:05.116Z,39.40
2023-02-13T09:27:34.939Z,38.87
2023-02-13T09:30:03.008Z,38.57
2023-02-13T09:32:31.320Z,38.69
2023-02-13T09:34:59.370Z,38.68
2023-02-13T09:37:27.898Z,38.75
2023-02-13T09:39:55.884Z,38.41
2023-02-13T09:42:29.246Z,37.87
2023-02-13T09:45:03.782Z,36.99
2023-02-13T09:47:34.239Z,36.95
2023-02-13T09:50:25.713Z,36.83
2023-02-13T09:52:55.930Z,36.33
2023-02-13T09:55:30.121Z,36.23
2023-02-13T09:58:00.912Z,35.79
2023-02-13T10:00:40.437Z,35.91
2023-02-13T10:03:29.605Z,34.62
2023-02-13T10:06:29.759Z,34.46
2023-02-13T10:09:00.219Z,34.63
2023-02-13T10:11:48.892Z,34.88
2023-02-13T10:14:27.658Z,34.27
2023-02-13T10:17:11.952Z,33.92
2023-02-13T10:19:57.559Z,33.69
2023-02-13T10:22:36.599Z,33.75
2023-02-13T10:25:16.489Z,32.89
2023-02-13T10:27:50.009Z,32.94
2023-02-13T10:30:32.748Z,32.17
2023-02-13T10:33:20.044Z,32.69
2023-02-13T10:36:12.861Z,31.69
2023-02-13T10:38:45.550Z,30.79
2023-02-13T10:41:35.545Z,30.31
2023-02-13T10:44:21.994Z,29.19
2023-02-13T10:47:21.912Z,29.14
2023-02-13T10:49:58.400Z,28.64
2023-02-13T10:52:32.730Z,27.10
2023-02-13T10:55:12.210Z,25.67
2023-02-13T10:57:55.002Z,25.09
2023-02-13T11:00:47.993Z,23.83
2023-02-13T11:03:30.148Z,22.83
2023-02-13T11:06:01.928Z,21.42
2023-02-13T11:08:45.990Z,20.59
2023-02-13T11:11:34.127Z,20.29
2023-02-13T11:14:12.207Z,20.35
2023-02-13T11:17:02.453Z,20.60
2023-02-13T11:19:47.963Z,21.20
2023-02-13T11:22:32.551Z,20.96
2023-02-13T11:25:06.548Z,21.09
2023-02-13T11:27:37.883Z,20.45
2023-02-13T11:30:35.589Z,20.53
2023-02-13T11:33:22.505Z,21.40
2023-02-13T11:36:03.822Z,19.79
2023-02-13T11:38:31.704Z,18.86
2023-02-13T11:41:19.717Z,18.62
2023-02-13T11:44:01.567Z,18.99
2023-02-13T11:46:31.597Z,18.67
2023-02-13T11:49:07.771Z,18.31
2023-02-13T11:51:46.402Z,18.17
2023-02-13T11:54:37.046Z,17.39
2023-02-13T11:57:30.006Z,18.29
2023-02-13T11:59:59.477Z,18.41
2023-02-13T12:02:50.298Z,17.89
2023-02-13T12:05:22.311Z,18.07
2023-02-13T12:07:50.708Z,18.36
2023-02-13T12:10:23.586Z,18.11
2023-02-13T12:13:17.572Z,17.84
2023-02-13T12:15:49.674Z,17.26
2023-02-13T12:18:49.584Z,17.34
2023-02-13T12:21:35.913Z,19.00
2023-02-13T12:24:27.760Z,18.97
2023-02-13T12:27:07.759Z,18.68
2023-02-13T12:29:47.369Z,18.98
2023-02-13T12:32:20.272Z,18.23
2023-02-13T12:35:14.981Z,17.28
2023-02-13T12:37:55.080Z,18.34
2023-02-13T12:40:43.941Z,17.16
2023-02-13T12:43:17.668Z,17.54
2023-02-13T12:46:06.762Z,17.17
2023-02-13T12:49:02.339Z,17.54
2023-02-13T12:52:07.596Z,17.78
2023-02-13T12:54:38.397Z,17.85
2023-02-13T12:57:30.417Z,17.22
2023-02-13T13:00:11.083Z,17.13
2023-02-13T13:02:54.030Z,16.61
2023-02-13T13:05:43.388Z,16.71
2023-02-13T13:08:50.540Z,17.01
2023-02-13T13:11:40.459Z,17.51
2023-02-13T13:14:21.150Z,17.37
2023-02-13T13:16:57.877Z,16.53
2023-02-13T13:19:34.710Z,16.87
2023-02-13T13:22:09.302Z,16.34
2023-02-13T13:25:06.160Z,16.66
2023-02-13T13:27:39.244Z,16.99
2023-02-13T13:30:20.493Z,17.00
2023-02-13T13:33:08.689Z,16.41
2023-02-13T13:35:41.720Z,15.44
2023-02-13T13:38:37.134Z,15.79
2023-02-13T13:41:18.342Z,15.86
2023-02-13T13:44:04.265Z,16.21
2023-02-13T13:46:53.491Z,16.26
2023-02-13T13:49:24.447Z,15.73
2023-02-13T13:51:52.244Z,15.58
2023-02-13T13:54:25.843Z,16.46
2023-02-13T13:56:53.617Z,16.36
2023-02-13T13:59:49.159Z,16.56
2023-02-13T14:02:19.875Z,16.50
2023-02-13T14:05:12.591Z,15.96
2023-02-13T14:07:42.258Z,16.04
2023-02-13T14:10:32.792Z,15.80
2023-02-13T14:13:03.347Z,16.77
2023-02-13T14:15:39.852Z,16.58
2023-02-13T14:18:19.080Z,16.32
2023-02-13T14:20:50.832Z,16.32
2023-02-13T14:23:18.679Z,16.67
2023-02-13T14:25:47.853Z,16.90
2023-02-13T14:28:27.625Z,17.08
2023-02-13T14:31:07.677Z,16.69
2023-02-13T14:33:35.821Z,17.64
2023-02-13T14:36:09.539Z,17.41
2023-02-13T14:38:37.658Z,18.42
2023-02-13T14:41:07.514Z,18.77
2023-02-13T14:43:39.531Z,19.00
2023-02-13T14:46:12.144Z,19.20
2023-02-13T14:48:43.437Z,20.27
2023-02-13T14:51:28.904Z,19.41
2023-02-13T14:54:20.439Z,19.37
2023-02-13T14:56:50.852Z,19.77
2023-02-13T14:59:24.270Z,20.70
2023-02-13T15:02:09.633Z,20.61
2023-02-13T15:04:42.481Z,21.43
2023-02-13T15:07:21.650Z,21.82
2023-02-13T15:09:56.428Z,21.48
2023-02-13T15:12:27.144Z,21.98
2023-02-13T15:14:54.982Z,22.83
2023-02-13T15:17:38.622Z,22.48
2023-02-13T15:20:25.106Z,22.79
2023-02-13T15:22:53.870Z,22.92
2023-02-13T15:25:39.299Z,24.20
2023-02-13T15:28:15.520Z,24.94
2023-02-13T15:31:04.375Z,24.92
2023-02-13T15:33:47.375Z,25.24
2023-02-13T15:36:27.359Z,25.51
2023-02-13T15:39:09.712Z,26.16
2023-02-13T15:41:44.907Z,26.59
2023-02-13T15:44:32.462Z,27.63
2023-02-13T15:47:18.178Z,27.45
2023-02-13T15:49:48.047Z,27.91
2023-02-13T15:52:25.676Z,28.60
2023-02-13T15:54:55.552Z,29.70
2023-02-13T15:57:25.794Z,29.62
2023-02-13T15:59:55.618Z,30.59
2023-02-13T16:02:34.244Z,31.39
2023-02-13T16:05:02.954Z,31.99
2023-02-13T16:07:30.792Z,31.90
2023-02-13T16:10:37.520Z,32.13
2023-02-13T16:13:08.007Z,32.33
2023-02-13T16:15:37.667Z,33.21
2023-02-13T16:18:12.031Z,33.25
2023-02-13T16:20:39.901Z,33.19
2023-02-13T16:23:17.264Z,33.80
2023-02-13T16:25:47.708Z,34.83
2023-02-13T16:28:25.829Z,35.00
2023-02-13T16:30:59.533Z,34.58
2023-02-13T16:33:34.112Z,35.15
2023-02-13T16:36:30.860Z,35.45
2023-02-13T16:39:10.545Z,35.55
2023-02-13T16:41:38.292Z,36.37
2023-02-13T16:44:06.345Z,36.61
2023-02-13T16:46:42.181Z,36.92
2023-02-13T16:49:09.864Z,37.34
2023-02-13T16:51:42.594Z,37.23
2023-02-13T16:54:28.173Z,37.70
2023-02-13T16:57:14.256Z,37.72
2023-02-13T16:59:47.877Z,37.36
2023-02-13T17:02:27.611Z,37.00
2023-02-13T17:05:16.774Z,37.16
2023-02-13T17:07:51.166Z,37.71
2023-02-13T17:10:23.705Z,38.17
2023-02-13T17:12:51.752Z,38.28
2023-02-13T17:15:25.592Z,38.71
2023-02-13T17:17:54.090Z,39.19
2023-02-13T17:20:29.303Z,39.69
2023-02-13T17:22:59.362Z,40.55
2023-02-13T17:25:34.204Z,40.71
2023-02-13T17:28:15.386Z,40.49
2023-02-13T17:30:44.927Z,41.19
2023-02-13T17:33:16.812Z,41.57
2023-02-13T17:35:44.635Z,42.39
2023-02-13T17:38:12.383Z,41.91
2023-02-13T17:40:42.661Z,41.13
2023-02-13T17:43:12.940Z,40.71
2023-02-13T17:45:41.183Z,40.21
2023-02-13T17:48:09.424Z,40.06
2023-02-13T17:50:38.338Z,39.96
2023-02-13T17:53:22.259Z,39.90
2023-02-13T17:55:50.419Z,40.55
2023-02-13T17:58:18.197Z,40.50
2023-02-13T18:00:46.108Z,41.99
2023-02-13T18:03:14.007Z,41.65
2023-02-13T18:05:42.297Z,41.51
2023-02-13T18:08:10.249Z,41.07
2023-02-13T18:10:39.742Z,41.23
2023-02-13T18:13:07.858Z,42.59
2023-02-13T18:15:40.676Z,43.86
2023-02-13T18:18:08.992Z,44.44
2023-02-13T18:20:36.937Z,44.70
2023-02-13T18:23:06.667Z,44.91
2023-02-13T18:25:34.978Z,45.67
2023-02-13T18:28:03.733Z,45.25
2023-02-13T18:30:31.698Z,46.07
2023-02-13T18:32:59.535Z,46.13
2023-02-13T18:35:27.558Z,46.52
2023-02-13T18:37:55.297Z,46.87
2023-02-13T18:40:23.112Z,47.25
2023-02-13T18:42:52.486Z,47.32
2023-02-13T18:45:20.302Z,47.44
2023-02-13T18:47:48.849Z,47.63
2023-02-13T18:50:16.856Z,47.84
2023-02-13T18:52:44.897Z,47.25
2023-02-13T18:55:12.846Z,47.08
2023-02-13T18:57:43.727Z,47.41
2023-02-13T19:00:14.435Z,47.79
2023-02-13T19:02:42.390Z,47.84
2023-02-13T19:05:10.320Z,48.33
2023-02-13T19:07:38.283Z,48.81
2023-02-13T19:10:07.256Z,49.06
2023-02-13T19:12:35.380Z,48.87
2023-02-13T19:15:03.971Z,48.68
2023-02-13T19:17:32.061Z,48.92
2023-02-13T19:20:00.053Z,48.62
2023-02-13T19:22:28.006Z,48.76
2023-02-13T19:24:56.100Z,49.30
2023-02-13T19:27:24.330Z,49.83
2023-02-13T19:29:52.290Z,49.51
2023-02-13T19:32:20.194Z,49.71
2023-02-13T19:34:48.291Z,49.58
2023-02-13T19:37:16.325Z,49.90
2023-02-13T19:39:44.212Z,50.27
2023-02-13T19:42:12.123Z,50.36
2023-02-13T19:44:40.030Z,50.92
2023-02-13T19:47:07.855Z,50.34
2023-02-13T19:49:35.804Z,50.97
2023-02-13T19:52:04.009Z,50.39
2023-02-13T19:54:32.404Z,50.64
2023-02-13T19:57:05.292Z,50.91
2023-02-13T19:59:34.588Z,51.02
2023-02-13T20:02:02.593Z,51.60
2023-02-13T20:04:32.385Z,52.29
2023-02-13T20:07:00.463Z,51.93
2023-02-13T20:09:28.412Z,51.61
2023-02-13T20:11:56.408Z,50.85
2023-02-13T20:14:24.479Z,50.44
2023-02-13T20:16:52.557Z,50.82
2023-02-13T20:19:20.686Z,50.63
2023-02-13T20:21:48.929Z,49.85
2023-02-13T20:24:17.259Z,50.61
2023-02-13T20:26:45.652Z,51.30
2023-02-13T20:29:13.700Z,50.74
2023-02-13T20:31:42.020Z,50.95
2023-02-13T20:34:11.114Z,51.22
2023-02-13T20:36:39.622Z,51.14
2023-02-13T20:39:08.624Z,51.90
2023-02-13T20:41:38.430Z,52.49
2023-02-13T20:44:12.315Z,52.40
2023-02-13T20:46:41.564Z,52.44
2023-02-13T20:49:13.972Z,53.10
2023-02-13T20:51:43.504Z,53.32
2023-02-13T20:54:12.952Z,53.05
2023-02-13T20:56:41.758Z,53.84
2023-02-13T20:59:11.284Z,53.42
2023-02-13T21:01:44.302Z,53.16
2023-02-13T21:04:15.032Z,52.84
2023-02-13T21:06:44.831Z,52.81
2023-02-13T21:09:15.011Z,53.40
2023-02-13T21:11:44.741Z,53.40
2023-02-13T21:14:14.588Z,54.38
2023-02-13T21:16:44.181Z,54.04
2023-02-13T21:19:22.015Z,53.26
2023-02-13T21:21:51.117Z,53.75
2023-02-13T21:24:22.367Z,54.11
2023-02-13T21:26:53.524Z,54.15
2023-02-13T21:29:21.954Z,53.86
2023-02-13T21:31:51.089Z,54.25
2023-02-13T21:34:19.362Z,54.28
2023-02-13T21:36:48.768Z,53.85
2023-02-13T21:39:16.813Z,54.18
2023-02-13T21:41:46.785Z,53.91
2023-02-13T21:44:17.015Z,53.67
2023-02-13T21:46:46.196Z,53.99
2023-02-13T21:49:17.549Z,54.36
2023-02-13T21:51:45.924Z,54.53
2023-02-13T21:54:14.762Z,54.65
2023-02-13T21:56:44.110Z,54.49
2023-02-13T21:59:16.752Z,53.96
2023-02-13T22:01:46.836Z,54.29
2023-02-13T22:04:14.893Z,55.14
2023-02-13T22:06:42.841Z,55.20
2023-02-13T22:09:14.165Z,55.57
2023-02-13T22:11:42.556Z,54.93
2023-02-13T22:14:17.272Z,55.10
2023-02-13T22:16:46.479Z,55.41
2023-02-13T22:19:16.311Z,54.60
2023-02-13T22:21:45.287Z,54.23
2023-02-13T22:24:13.341Z,55.63
2023-02-13T22:26:45.414Z,55.64
2023-02-13T22:29:16.001Z,55.67
2023-02-13T22:31:44.282Z,55.77
2023-02-13T22:34:13.643Z,55.20
2023-02-13T22:36:42.988Z,55.63
2023-02-13T22:39:12.107Z,56.22
2023-02-13T22:41:40.098Z,56.48
2023-02-13T22:44:08.032Z,56.60
2023-02-13T22:46:36.033Z,56.12
2023-02-13T22:49:04.374Z,56.47
2023-02-13T22:51:34.461Z,56.89
2023-02-13T22:54:02.875Z,56.18
2023-02-13T22:56:31.790Z,55.85
2023-02-13T22:59:00.306Z,56.09
2023-02-13T23:01:29.117Z,55.94
2023-02-13T23:03:57.492Z,55.88
2023-02-13T23:06:25.979Z,56.46
2023-02-13T23:08:54.004Z,57.37
2023-02-13T23:11:45.854Z,56.75
2023-02-13T23:14:14.427Z,56.32
2023-02-13T23:17:01.931Z,56.26
2023-02-13T23:19:30.868Z,56.33
2023-02-13T23:21:59.806Z,56.39
2023-02-13T23:24:29.572Z,56.77
2023-02-13T23:26:58.881Z,56.00
2023-02-13T23:29:27.165Z,56.51
2023-02-13T23:31:55.367Z,55.92
2023-02-13T23:34:23.415Z,56.22
2023-02-13T23:36:51.249Z,56.29
2023-02-13T23:39:20.193Z,56.56
2023-02-13T23:41:48.228Z,56.91
2023-02-13T23:44:16.037Z,57.25
2023-02-13T23:46:44.034Z,57.25
2023-02-13T23:49:11.972Z,57.51
2023-02-13T23:51:40.050Z,58.08
2023-02-13T23:54:08.136Z,57.66
2023-02-13T23:56:36.102Z,57.26
2023-02-13T23:59:04.146Z,57.65
